sensor_id;sensor_type;location;lat;lon;timestamp;temperature;humidity
17170;DHT22;8700;48.222;16.342;2024-01-10T00:01:17;-4.60;99.90
17170;DHT22;8700;48.222;16.342;2024-01-10T00:04:38;-4.60;99.90
17170;DHT22;8700;48.222;16.342;2024-01-10T00:08:00;-4.70;99.90
17170;DHT22;8700;48.222;16.342;2024-01-10T00:11:32;-4.70;99.90
17170;DHT22;8700;48.222;16.342;2024-01-10T00:14:53;-4.70;99.90
17170;DHT22;8700;48.222;16.342;2024-01-10T00:18:14;-4.70;99.90
17170;DHT22;8700;48.222;16.342;2024-01-10T00:21:35;-4.70;99.90
17170;DHT22;8700;48.222;16.342;2024-01-10T00:24:58;-4.70;99.90
17170;DHT22;8700;48.222;16.342;2024-01-10T00:28:19;-4.70;99.90
17170;DHT22;8700;48.222;16.342;2024-01-10T00:31:40;-4.60;99.90
17170;DHT22;8700;48.222;16.342;2024-01-10T00:35:01;-4.50;99.90
17170;DHT22;8700;48.222;16.342;2024-01-10T00:38:23;-4.60;99.90
17170;DHT22;8700;48.222;16.342;2024-01-10T00:41:45;-4.50;99.90
17170;DHT22;8700;48.222;16.342;2024-01-10T00:45:07;-4.50;99.90
17170;DHT22;8700;48.222;16.342;2024-01-10T00:48:28;-4.50;99.90
17170;DHT22;8700;48.222;16.342;2024-01-10T00:51:49;-4.60;99.90
17170;DHT22;8700;48.222;16.342;2024-01-10T00:55:10;-4.60;99.90
17170;DHT22;8700;48.222;16.342;2024-01-10T00:58:32;-4.60;99.90
17170;DHT22;8700;48.222;16.342;2024-01-10T01:01:54;-4.60;99.90
17170;DHT22;8700;48.222;16.342;2024-01-10T01:05:15;-4.60;99.90
17170;DHT22;8700;48.222;16.342;2024-01-10T01:08:36;-4.80;99.90
17170;DHT22;8700;48.222;16.342;2024-01-10T01:11:57;-5.00;99.90
17170;DHT22;8700;48.222;16.342;2024-01-10T01:15:19;-5.00;99.90
17170;DHT22;8700;48.222;16.342;2024-01-10T01:18:41;-5.10;99.90
17170;DHT22;8700;48.222;16.342;2024-01-10T01:22:04;-5.10;99.90
17170;DHT22;8700;48.222;16.342;2024-01-10T01:25:26;-5.10;99.90
17170;DHT22;8700;48.222;16.342;2024-01-10T01:28:47;-5.10;99.90
17170;DHT22;8700;48.222;16.342;2024-01-10T01:32:10;-5.20;99.90
17170;DHT22;8700;48.222;16.342;2024-01-10T01:35:31;-5.20;99.90
17170;DHT22;8700;48.222;16.342;2024-01-10T01:38:52;-5.30;99.90
17170;DHT22;8700;48.222;16.342;2024-01-10T01:42:13;-5.10;99.90
17170;DHT22;8700;48.222;16.342;2024-01-10T01:45:34;-5.10;99.90
17170;DHT22;8700;48.222;16.342;2024-01-10T01:48:56;-5.00;99.90
17170;DHT22;8700;48.222;16.342;2024-01-10T01:52:17;-5.00;99.90
17170;DHT22;8700;48.222;16.342;2024-01-10T01:55:39;-5.00;99.90
17170;DHT22;8700;48.222;16.342;2024-01-10T01:59:01;-5.00;99.90
17170;DHT22;8700;48.222;16.342;2024-01-10T02:02:23;-5.00;99.90
17170;DHT22;8700;48.222;16.342;2024-01-10T02:05:47;-5.00;99.90
17170;DHT22;8700;48.222;16.342;2024-01-10T02:09:08;-5.00;99.90
17170;DHT22;8700;48.222;16.342;2024-01-10T02:12:29;-5.10;99.90
17170;DHT22;8700;48.222;16.342;2024-01-10T02:15:51;-5.10;99.90
17170;DHT22;8700;48.222;16.342;2024-01-10T02:19:20;-5.10;99.90
17170;DHT22;8700;48.222;16.342;2024-01-10T02:22:42;-5.00;99.90
17170;DHT22;8700;48.222;16.342;2024-01-10T02:26:05;-5.00;99.90
17170;DHT22;8700;48.222;16.342;2024-01-10T02:29:26;-5.00;99.90
17170;DHT22;8700;48.222;16.342;2024-01-10T02:32:48;-5.00;99.90
17170;DHT22;8700;48.222;16.342;2024-01-10T02:36:08;-5.00;99.90
17170;DHT22;8700;48.222;16.342;2024-01-10T02:39:30;-5.00;99.90
17170;DHT22;8700;48.222;16.342;2024-01-10T02:42:52;-5.10;99.90
17170;DHT22;8700;48.222;16.342;2024-01-10T02:46:25;-5.10;99.90
17170;DHT22;8700;48.222;16.342;2024-01-10T02:49:47;-5.20;99.90
17170;DHT22;8700;48.222;16.342;2024-01-10T02:53:09;-5.20;99.90
17170;DHT22;8700;48.222;16.342;2024-01-10T02:56:30;-5.30;99.90
17170;DHT22;8700;48.222;16.342;2024-01-10T02:59:52;-5.30;99.90
17170;DHT22;8700;48.222;16.342;2024-01-10T03:03:13;-5.30;99.90
17170;DHT22;8700;48.222;16.342;2024-01-10T03:06:35;-5.30;99.90
17170;DHT22;8700;48.222;16.342;2024-01-10T03:09:56;-5.20;99.90
17170;DHT22;8700;48.222;16.342;2024-01-10T03:13:17;-5.30;99.90
17170;DHT22;8700;48.222;16.342;2024-01-10T03:16:39;-5.30;99.90
17170;DHT22;8700;48.222;16.342;2024-01-10T03:20:00;-5.30;99.90
17170;DHT22;8700;48.222;16.342;2024-01-10T03:23:22;-5.30;99.90
17170;DHT22;8700;48.222;16.342;2024-01-10T03:26:43;-5.40;99.90
17170;DHT22;8700;48.222;16.342;2024-01-10T03:30:05;-5.30;99.90
17170;DHT22;8700;48.222;16.342;2024-01-10T03:33:29;-5.20;99.90
17170;DHT22;8700;48.222;16.342;2024-01-10T03:36:50;-5.20;99.90
17170;DHT22;8700;48.222;16.342;2024-01-10T03:40:11;-5.10;99.90
17170;DHT22;8700;48.222;16.342;2024-01-10T03:43:32;-5.10;99.90
17170;DHT22;8700;48.222;16.342;2024-01-10T03:46:53;-5.10;99.90
17170;DHT22;8700;48.222;16.342;2024-01-10T03:50:16;-5.10;99.90
17170;DHT22;8700;48.222;16.342;2024-01-10T03:53:37;-5.10;99.90
17170;DHT22;8700;48.222;16.342;2024-01-10T03:56:58;-5.00;99.90
17170;DHT22;8700;48.222;16.342;2024-01-10T04:00:20;-4.90;99.90
17170;DHT22;8700;48.222;16.342;2024-01-10T04:03:41;-4.90;99.90
17170;DHT22;8700;48.222;16.342;2024-01-10T04:07:04;-4.90;99.90
17170;DHT22;8700;48.222;16.342;2024-01-10T04:10:25;-4.80;99.90
17170;DHT22;8700;48.222;16.342;2024-01-10T04:13:46;-4.80;99.90
17170;DHT22;8700;48.222;16.342;2024-01-10T04:17:07;-4.90;99.90
17170;DHT22;8700;48.222;16.342;2024-01-10T04:20:29;-5.00;99.90
17170;DHT22;8700;48.222;16.342;2024-01-10T04:23:51;-5.00;99.90
17170;DHT22;8700;48.222;16.342;2024-01-10T04:27:12;-5.00;99.90
17170;DHT22;8700;48.222;16.342;2024-01-10T04:30:33;-5.10;99.90
17170;DHT22;8700;48.222;16.342;2024-01-10T04:33:54;-5.00;99.90
17170;DHT22;8700;48.222;16.342;2024-01-10T04:37:16;-5.00;99.90
17170;DHT22;8700;48.222;16.342;2024-01-10T04:40:38;-5.00;99.90
17170;DHT22;8700;48.222;16.342;2024-01-10T04:43:59;-5.10;99.90
17170;DHT22;8700;48.222;16.342;2024-01-10T04:47:20;-5.20;99.90
17170;DHT22;8700;48.222;16.342;2024-01-10T04:50:41;-5.10;99.90
17170;DHT22;8700;48.222;16.342;2024-01-10T04:54:02;-5.10;99.90
17170;DHT22;8700;48.222;16.342;2024-01-10T04:57:25;-5.10;99.90
17170;DHT22;8700;48.222;16.342;2024-01-10T05:00:46;-4.90;99.90
17170;DHT22;8700;48.222;16.342;2024-01-10T05:04:07;-4.90;99.90
17170;DHT22;8700;48.222;16.342;2024-01-10T05:07:28;-5.10;99.90
17170;DHT22;8700;48.222;16.342;2024-01-10T05:10:49;-5.10;99.90
17170;DHT22;8700;48.222;16.342;2024-01-10T05:14:12;-5.10;99.90
17170;DHT22;8700;48.222;16.342;2024-01-10T05:17:33;-5.00;99.90
17170;DHT22;8700;48.222;16.342;2024-01-10T05:20:54;-4.90;99.90
17170;DHT22;8700;48.222;16.342;2024-01-10T05:24:15;-5.10;99.90
17170;DHT22;8700;48.222;16.342;2024-01-10T05:27:38;-5.10;99.90
17170;DHT22;8700;48.222;16.342;2024-01-10T05:31:01;-5.00;99.90
17170;DHT22;8700;48.222;16.342;2024-01-10T05:34:22;-4.80;99.90
17170;DHT22;8700;48.222;16.342;2024-01-10T05:37:43;-4.80;99.90
17170;DHT22;8700;48.222;16.342;2024-01-10T05:41:09;-4.90;99.90
17170;DHT22;8700;48.222;16.342;2024-01-10T05:44:30;-4.90;99.90
17170;DHT22;8700;48.222;16.342;2024-01-10T05:47:53;-5.10;99.90
17170;DHT22;8700;48.222;16.342;2024-01-10T05:51:14;-5.00;99.90
17170;DHT22;8700;48.222;16.342;2024-01-10T05:54:36;-5.00;99.90
17170;DHT22;8700;48.222;16.342;2024-01-10T05:57:57;-5.10;99.90
17170;DHT22;8700;48.222;16.342;2024-01-10T06:01:18;-5.10;99.90
17170;DHT22;8700;48.222;16.342;2024-01-10T06:04:41;-5.00;99.90
17170;DHT22;8700;48.222;16.342;2024-01-10T06:08:02;-5.00;99.90
17170;DHT22;8700;48.222;16.342;2024-01-10T06:11:24;-5.00;99.90
17170;DHT22;8700;48.222;16.342;2024-01-10T06:14:45;-4.90;99.90
17170;DHT22;8700;48.222;16.342;2024-01-10T06:18:06;-4.90;99.90
17170;DHT22;8700;48.222;16.342;2024-01-10T06:21:29;-4.80;99.90
17170;DHT22;8700;48.222;16.342;2024-01-10T06:24:49;-4.70;99.90
17170;DHT22;8700;48.222;16.342;2024-01-10T06:28:11;-4.70;99.90
17170;DHT22;8700;48.222;16.342;2024-01-10T06:31:32;-4.80;99.90
17170;DHT22;8700;48.222;16.342;2024-01-10T06:34:53;-4.70;99.90
17170;DHT22;8700;48.222;16.342;2024-01-10T06:38:16;-4.70;99.90
17170;DHT22;8700;48.222;16.342;2024-01-10T06:41:40;-4.50;99.90
17170;DHT22;8700;48.222;16.342;2024-01-10T06:45:02;-4.60;99.90
17170;DHT22;8700;48.222;16.342;2024-01-10T06:48:25;-4.60;99.90
17170;DHT22;8700;48.222;16.342;2024-01-10T06:51:46;-4.40;99.90
17170;DHT22;8700;48.222;16.342;2024-01-10T06:55:09;-4.30;99.90
17170;DHT22;8700;48.222;16.342;2024-01-10T06:58:30;-4.10;99.90
17170;DHT22;8700;48.222;16.342;2024-01-10T07:01:53;-4.20;99.90
17170;DHT22;8700;48.222;16.342;2024-01-10T07:05:16;-4.30;99.90
17170;DHT22;8700;48.222;16.342;2024-01-10T07:08:37;-4.30;99.90
17170;DHT22;8700;48.222;16.342;2024-01-10T07:11:59;-4.50;99.90
17170;DHT22;8700;48.222;16.342;2024-01-10T07:15:22;-4.50;99.90
17170;DHT22;8700;48.222;16.342;2024-01-10T07:18:43;-4.40;99.90
17170;DHT22;8700;48.222;16.342;2024-01-10T07:22:06;-4.30;99.90
17170;DHT22;8700;48.222;16.342;2024-01-10T07:25:28;-4.30;99.90
17170;DHT22;8700;48.222;16.342;2024-01-10T07:28:51;-4.40;99.90
17170;DHT22;8700;48.222;16.342;2024-01-10T07:32:12;-4.30;99.90
17170;DHT22;8700;48.222;16.342;2024-01-10T07:35:33;-4.30;99.90
17170;DHT22;8700;48.222;16.342;2024-01-10T07:38:54;-4.20;99.90
17170;DHT22;8700;48.222;16.342;2024-01-10T07:42:16;-4.10;99.90
17170;DHT22;8700;48.222;16.342;2024-01-10T07:45:39;-4.00;99.90
17170;DHT22;8700;48.222;16.342;2024-01-10T07:49:01;-3.80;99.90
17170;DHT22;8700;48.222;16.342;2024-01-10T07:52:22;-3.80;99.90
17170;DHT22;8700;48.222;16.342;2024-01-10T07:55:43;-4.00;99.90
17170;DHT22;8700;48.222;16.342;2024-01-10T07:59:04;-4.00;99.90
17170;DHT22;8700;48.222;16.342;2024-01-10T08:02:27;-3.90;99.90
17170;DHT22;8700;48.222;16.342;2024-01-10T08:05:48;-4.00;99.90
17170;DHT22;8700;48.222;16.342;2024-01-10T08:09:09;-4.00;99.90
17170;DHT22;8700;48.222;16.342;2024-01-10T08:12:30;-4.10;99.90
17170;DHT22;8700;48.222;16.342;2024-01-10T08:15:51;-3.80;99.90
17170;DHT22;8700;48.222;16.342;2024-01-10T08:19:14;-3.70;99.90
17170;DHT22;8700;48.222;16.342;2024-01-10T08:22:35;-3.50;99.90
17170;DHT22;8700;48.222;16.342;2024-01-10T08:25:56;-3.30;99.90
17170;DHT22;8700;48.222;16.342;2024-01-10T08:29:17;-3.40;99.90
17170;DHT22;8700;48.222;16.342;2024-01-10T08:32:38;-3.10;99.90
17170;DHT22;8700;48.222;16.342;2024-01-10T08:36:01;-3.10;99.90
17170;DHT22;8700;48.222;16.342;2024-01-10T08:39:22;-3.10;99.90
17170;DHT22;8700;48.222;16.342;2024-01-10T08:42:45;-3.00;99.90
17170;DHT22;8700;48.222;16.342;2024-01-10T08:46:07;-3.10;99.90
17170;DHT22;8700;48.222;16.342;2024-01-10T08:49:28;-3.20;99.90
17170;DHT22;8700;48.222;16.342;2024-01-10T08:52:51;-3.00;99.90
17170;DHT22;8700;48.222;16.342;2024-01-10T08:56:12;-3.00;99.90
17170;DHT22;8700;48.222;16.342;2024-01-10T08:59:33;-3.10;99.90
17170;DHT22;8700;48.222;16.342;2024-01-10T09:02:54;-3.00;99.90
17170;DHT22;8700;48.222;16.342;2024-01-10T09:06:16;-3.20;99.90
17170;DHT22;8700;48.222;16.342;2024-01-10T09:09:39;-3.20;99.90
17170;DHT22;8700;48.222;16.342;2024-01-10T09:13:02;-2.90;99.90
17170;DHT22;8700;48.222;16.342;2024-01-10T09:16:23;-3.00;99.90
17170;DHT22;8700;48.222;16.342;2024-01-10T09:19:44;-2.90;99.90
17170;DHT22;8700;48.222;16.342;2024-01-10T09:23:05;-2.80;99.90
17170;DHT22;8700;48.222;16.342;2024-01-10T09:26:28;-2.80;99.90
17170;DHT22;8700;48.222;16.342;2024-01-10T09:29:49;-2.80;99.90
17170;DHT22;8700;48.222;16.342;2024-01-10T09:33:10;-2.70;99.90
17170;DHT22;8700;48.222;16.342;2024-01-10T09:36:32;-2.70;99.90
17170;DHT22;8700;48.222;16.342;2024-01-10T09:39:53;-2.60;99.90
17170;DHT22;8700;48.222;16.342;2024-01-10T09:43:15;-2.60;99.90
17170;DHT22;8700;48.222;16.342;2024-01-10T09:46:39;-2.50;99.90
17170;DHT22;8700;48.222;16.342;2024-01-10T09:50:02;-2.50;99.90
17170;DHT22;8700;48.222;16.342;2024-01-10T09:53:24;-2.20;99.90
17170;DHT22;8700;48.222;16.342;2024-01-10T09:56:47;-2.10;99.90
17170;DHT22;8700;48.222;16.342;2024-01-10T10:00:11;-2.10;99.90
17170;DHT22;8700;48.222;16.342;2024-01-10T10:03:34;-2.00;99.90
17170;DHT22;8700;48.222;16.342;2024-01-10T10:07:00;-1.80;99.90
17170;DHT22;8700;48.222;16.342;2024-01-10T10:10:22;-1.30;99.90
17170;DHT22;8700;48.222;16.342;2024-01-10T10:13:43;-1.10;99.90
17170;DHT22;8700;48.222;16.342;2024-01-10T10:17:16;-1.20;99.90
17170;DHT22;8700;48.222;16.342;2024-01-10T10:20:37;-1.30;99.90
17170;DHT22;8700;48.222;16.342;2024-01-10T10:23:59;-1.30;99.90
17170;DHT22;8700;48.222;16.342;2024-01-10T10:27:21;-1.10;99.90
17170;DHT22;8700;48.222;16.342;2024-01-10T10:30:46;-0.90;99.90
17170;DHT22;8700;48.222;16.342;2024-01-10T10:34:09;-0.90;99.90
17170;DHT22;8700;48.222;16.342;2024-01-10T10:37:30;-0.70;99.90
17170;DHT22;8700;48.222;16.342;2024-01-10T10:40:52;-0.70;99.90
17170;DHT22;8700;48.222;16.342;2024-01-10T10:44:15;-1.00;99.90
17170;DHT22;8700;48.222;16.342;2024-01-10T10:47:41;-0.70;99.90
17170;DHT22;8700;48.222;16.342;2024-01-10T10:51:09;-0.30;99.90
17170;DHT22;8700;48.222;16.342;2024-01-10T10:54:31;-0.50;99.90
17170;DHT22;8700;48.222;16.342;2024-01-10T10:57:54;-0.40;99.90
17170;DHT22;8700;48.222;16.342;2024-01-10T11:01:16;0.30;99.90
17170;DHT22;8700;48.222;16.342;2024-01-10T11:04:40;2.00;99.90
17170;DHT22;8700;48.222;16.342;2024-01-10T11:08:04;2.70;99.90
17170;DHT22;8700;48.222;16.342;2024-01-10T11:11:36;2.60;99.90
17170;DHT22;8700;48.222;16.342;2024-01-10T11:15:18;3.20;99.90
17170;DHT22;8700;48.222;16.342;2024-01-10T11:18:59;4.80;99.90
17170;DHT22;8700;48.222;16.342;2024-01-10T11:22:43;4.60;96.90
17170;DHT22;8700;48.222;16.342;2024-01-10T11:26:06;3.90;98.60
17170;DHT22;8700;48.222;16.342;2024-01-10T11:29:28;4.60;98.10
17170;DHT22;8700;48.222;16.342;2024-01-10T11:32:49;5.70;95.70
17170;DHT22;8700;48.222;16.342;2024-01-10T11:36:14;5.10;95.60
17170;DHT22;8700;48.222;16.342;2024-01-10T11:39:35;5.20;95.10
17170;DHT22;8700;48.222;16.342;2024-01-10T11:42:58;4.70;95.50
17170;DHT22;8700;48.222;16.342;2024-01-10T11:46:19;5.10;96.20
17170;DHT22;8700;48.222;16.342;2024-01-10T11:49:41;5.90;93.80
17170;DHT22;8700;48.222;16.342;2024-01-10T11:53:43;5.50;93.90
17170;DHT22;8700;48.222;16.342;2024-01-10T11:57:10;5.30;93.70
17170;DHT22;8700;48.222;16.342;2024-01-10T12:00:33;5.40;94.30
17170;DHT22;8700;48.222;16.342;2024-01-10T12:03:56;6.40;93.70
17170;DHT22;8700;48.222;16.342;2024-01-10T12:07:19;7.10;96.80
17170;DHT22;8700;48.222;16.342;2024-01-10T12:10:41;7.60;93.00
17170;DHT22;8700;48.222;16.342;2024-01-10T12:14:02;7.80;92.40
17170;DHT22;8700;48.222;16.342;2024-01-10T12:17:27;7.10;92.20
17170;DHT22;8700;48.222;16.342;2024-01-10T12:20:49;7.50;92.70
17170;DHT22;8700;48.222;16.342;2024-01-10T12:24:10;7.40;90.90
17170;DHT22;8700;48.222;16.342;2024-01-10T12:27:31;6.80;91.10
17170;DHT22;8700;48.222;16.342;2024-01-10T12:30:53;6.60;90.70
17170;DHT22;8700;48.222;16.342;2024-01-10T12:34:15;6.20;92.30
17170;DHT22;8700;48.222;16.342;2024-01-10T12:37:37;5.50;91.70
17170;DHT22;8700;48.222;16.342;2024-01-10T12:40:58;4.70;92.90
17170;DHT22;8700;48.222;16.342;2024-01-10T12:44:20;4.20;94.20
17170;DHT22;8700;48.222;16.342;2024-01-10T12:47:42;4.00;94.80
17170;DHT22;8700;48.222;16.342;2024-01-10T12:51:05;3.30;96.60
17170;DHT22;8700;48.222;16.342;2024-01-10T12:54:26;3.30;96.80
17170;DHT22;8700;48.222;16.342;2024-01-10T12:57:47;3.00;97.70
17170;DHT22;8700;48.222;16.342;2024-01-10T13:01:09;2.80;98.70
17170;DHT22;8700;48.222;16.342;2024-01-10T13:04:31;2.60;99.10
17170;DHT22;8700;48.222;16.342;2024-01-10T13:07:54;2.60;99.90
17170;DHT22;8700;48.222;16.342;2024-01-10T13:11:16;2.30;99.90
17170;DHT22;8700;48.222;16.342;2024-01-10T13:14:38;2.10;99.90
17170;DHT22;8700;48.222;16.342;2024-01-10T13:17:59;2.50;99.90
17170;DHT22;8700;48.222;16.342;2024-01-10T13:21:20;2.60;99.90
17170;DHT22;8700;48.222;16.342;2024-01-10T13:24:43;2.70;99.90
17170;DHT22;8700;48.222;16.342;2024-01-10T13:28:05;2.30;99.90
17170;DHT22;8700;48.222;16.342;2024-01-10T13:31:26;2.10;99.90
17170;DHT22;8700;48.222;16.342;2024-01-10T13:34:47;2.20;99.90
17170;DHT22;8700;48.222;16.342;2024-01-10T13:38:08;2.00;99.90
17170;DHT22;8700;48.222;16.342;2024-01-10T13:41:31;2.10;99.90
17170;DHT22;8700;48.222;16.342;2024-01-10T13:44:52;2.20;99.90
17170;DHT22;8700;48.222;16.342;2024-01-10T13:48:13;2.40;99.90
17170;DHT22;8700;48.222;16.342;2024-01-10T13:51:36;2.60;99.90
17170;DHT22;8700;48.222;16.342;2024-01-10T13:54:57;2.70;99.90
17170;DHT22;8700;48.222;16.342;2024-01-10T13:58:20;2.50;99.90
17170;DHT22;8700;48.222;16.342;2024-01-10T14:01:43;2.20;99.90
17170;DHT22;8700;48.222;16.342;2024-01-10T14:05:05;2.20;99.90
17170;DHT22;8700;48.222;16.342;2024-01-10T14:08:26;2.00;99.90
17170;DHT22;8700;48.222;16.342;2024-01-10T14:11:47;1.90;99.90
17170;DHT22;8700;48.222;16.342;2024-01-10T14:15:10;2.00;99.90
17170;DHT22;8700;48.222;16.342;2024-01-10T14:18:31;2.20;99.90
17170;DHT22;8700;48.222;16.342;2024-01-10T14:21:52;2.30;99.90
17170;DHT22;8700;48.222;16.342;2024-01-10T14:25:13;2.40;99.90
17170;DHT22;8700;48.222;16.342;2024-01-10T14:28:35;2.30;99.90
17170;DHT22;8700;48.222;16.342;2024-01-10T14:31:57;2.40;99.90
17170;DHT22;8700;48.222;16.342;2024-01-10T14:35:18;2.20;99.90
17170;DHT22;8700;48.222;16.342;2024-01-10T14:38:39;2.10;99.90
17170;DHT22;8700;48.222;16.342;2024-01-10T14:42:00;2.00;99.90
17170;DHT22;8700;48.222;16.342;2024-01-10T14:45:22;2.30;99.90
17170;DHT22;8700;48.222;16.342;2024-01-10T14:48:46;2.50;99.90
17170;DHT22;8700;48.222;16.342;2024-01-10T14:52:07;2.50;99.90
17170;DHT22;8700;48.222;16.342;2024-01-10T14:55:29;2.70;99.90
17170;DHT22;8700;48.222;16.342;2024-01-10T14:58:50;2.60;99.90
17170;DHT22;8700;48.222;16.342;2024-01-10T15:02:11;2.60;99.90
17170;DHT22;8700;48.222;16.342;2024-01-10T15:05:33;2.40;99.90
17170;DHT22;8700;48.222;16.342;2024-01-10T15:08:55;2.40;99.90
17170;DHT22;8700;48.222;16.342;2024-01-10T15:12:16;2.30;99.90
17170;DHT22;8700;48.222;16.342;2024-01-10T15:15:37;2.20;99.90
17170;DHT22;8700;48.222;16.342;2024-01-10T15:18:59;2.10;99.90
17170;DHT22;8700;48.222;16.342;2024-01-10T15:22:22;2.00;99.90
17170;DHT22;8700;48.222;16.342;2024-01-10T15:25:43;1.80;99.90
17170;DHT22;8700;48.222;16.342;2024-01-10T15:29:04;1.80;99.90
17170;DHT22;8700;48.222;16.342;2024-01-10T15:32:25;1.70;99.90
17170;DHT22;8700;48.222;16.342;2024-01-10T15:35:48;1.60;99.90
17170;DHT22;8700;48.222;16.342;2024-01-10T15:39:11;1.60;99.90
17170;DHT22;8700;48.222;16.342;2024-01-10T15:42:33;1.50;99.90
17170;DHT22;8700;48.222;16.342;2024-01-10T15:45:55;1.50;99.90
17170;DHT22;8700;48.222;16.342;2024-01-10T15:49:16;1.60;99.90
17170;DHT22;8700;48.222;16.342;2024-01-10T15:52:37;1.70;99.90
17170;DHT22;8700;48.222;16.342;2024-01-10T15:56:00;1.60;99.90
17170;DHT22;8700;48.222;16.342;2024-01-10T15:59:21;1.70;99.90
17170;DHT22;8700;48.222;16.342;2024-01-10T16:02:42;1.80;99.90
17170;DHT22;8700;48.222;16.342;2024-01-10T16:06:04;1.70;99.90
17170;DHT22;8700;48.222;16.342;2024-01-10T16:09:25;1.70;99.90
17170;DHT22;8700;48.222;16.342;2024-01-10T16:12:47;1.50;99.90
17170;DHT22;8700;48.222;16.342;2024-01-10T16:16:08;1.50;99.90
17170;DHT22;8700;48.222;16.342;2024-01-10T16:19:30;1.40;99.90
17170;DHT22;8700;48.222;16.342;2024-01-10T16:22:51;1.40;99.90
17170;DHT22;8700;48.222;16.342;2024-01-10T16:26:12;1.60;99.90
17170;DHT22;8700;48.222;16.342;2024-01-10T16:29:35;1.50;99.90
17170;DHT22;8700;48.222;16.342;2024-01-10T16:32:56;1.60;99.90
17170;DHT22;8700;48.222;16.342;2024-01-10T16:36:17;1.60;99.90
17170;DHT22;8700;48.222;16.342;2024-01-10T16:39:38;1.60;99.90
17170;DHT22;8700;48.222;16.342;2024-01-10T16:43:00;1.60;99.90
17170;DHT22;8700;48.222;16.342;2024-01-10T16:46:23;1.40;99.90
17170;DHT22;8700;48.222;16.342;2024-01-10T16:49:44;1.30;99.90
17170;DHT22;8700;48.222;16.342;2024-01-10T16:53:05;1.20;99.90
17170;DHT22;8700;48.222;16.342;2024-01-10T16:56:26;1.30;99.90
17170;DHT22;8700;48.222;16.342;2024-01-10T16:59:48;1.40;99.90
17170;DHT22;8700;48.222;16.342;2024-01-10T17:03:10;1.40;99.90
17170;DHT22;8700;48.222;16.342;2024-01-10T17:06:31;1.30;99.90
17170;DHT22;8700;48.222;16.342;2024-01-10T17:09:52;1.30;99.90
17170;DHT22;8700;48.222;16.342;2024-01-10T17:13:13;1.40;99.90
17170;DHT22;8700;48.222;16.342;2024-01-10T17:16:34;1.40;99.90
17170;DHT22;8700;48.222;16.342;2024-01-10T17:19:58;1.30;99.90
17170;DHT22;8700;48.222;16.342;2024-01-10T17:23:19;1.30;99.90
17170;DHT22;8700;48.222;16.342;2024-01-10T17:26:40;1.30;99.90
17170;DHT22;8700;48.222;16.342;2024-01-10T17:30:01;1.30;99.90
17170;DHT22;8700;48.222;16.342;2024-01-10T17:33:22;1.30;99.90
17170;DHT22;8700;48.222;16.342;2024-01-10T17:36:45;1.30;99.90
17170;DHT22;8700;48.222;16.342;2024-01-10T17:40:07;1.30;99.90
17170;DHT22;8700;48.222;16.342;2024-01-10T17:43:29;1.20;99.90
17170;DHT22;8700;48.222;16.342;2024-01-10T17:46:50;1.20;99.90
17170;DHT22;8700;48.222;16.342;2024-01-10T17:50:12;1.10;99.90
17170;DHT22;8700;48.222;16.342;2024-01-10T17:53:34;1.20;99.90
17170;DHT22;8700;48.222;16.342;2024-01-10T17:56:55;1.20;99.90
17170;DHT22;8700;48.222;16.342;2024-01-10T18:00:17;1.10;99.90
17170;DHT22;8700;48.222;16.342;2024-01-10T18:03:38;1.10;99.90
17170;DHT22;8700;48.222;16.342;2024-01-10T18:06:59;1.00;99.90
17170;DHT22;8700;48.222;16.342;2024-01-10T18:10:22;1.00;99.90
17170;DHT22;8700;48.222;16.342;2024-01-10T18:13:43;1.10;99.90
17170;DHT22;8700;48.222;16.342;2024-01-10T18:17:04;1.00;99.90
17170;DHT22;8700;48.222;16.342;2024-01-10T18:20:25;0.90;99.90
17170;DHT22;8700;48.222;16.342;2024-01-10T18:23:46;1.00;99.90
17170;DHT22;8700;48.222;16.342;2024-01-10T18:27:09;0.90;99.90
17170;DHT22;8700;48.222;16.342;2024-01-10T18:30:30;0.80;99.90
17170;DHT22;8700;48.222;16.342;2024-01-10T18:33:51;0.70;99.90
17170;DHT22;8700;48.222;16.342;2024-01-10T18:37:13;0.70;99.90
17170;DHT22;8700;48.222;16.342;2024-01-10T18:40:34;0.60;99.90
17170;DHT22;8700;48.222;16.342;2024-01-10T18:43:56;0.60;99.90
17170;DHT22;8700;48.222;16.342;2024-01-10T18:47:18;0.60;99.90
17170;DHT22;8700;48.222;16.342;2024-01-10T18:50:39;0.60;99.90
17170;DHT22;8700;48.222;16.342;2024-01-10T18:54:00;0.50;99.90
17170;DHT22;8700;48.222;16.342;2024-01-10T18:57:21;0.50;99.90
17170;DHT22;8700;48.222;16.342;2024-01-10T19:00:44;0.40;99.90
17170;DHT22;8700;48.222;16.342;2024-01-10T19:04:05;0.40;99.90
17170;DHT22;8700;48.222;16.342;2024-01-10T19:07:27;0.40;99.90
17170;DHT22;8700;48.222;16.342;2024-01-10T19:10:48;0.40;99.90
17170;DHT22;8700;48.222;16.342;2024-01-10T19:14:09;0.40;99.90
17170;DHT22;8700;48.222;16.342;2024-01-10T19:17:31;0.30;99.90
17170;DHT22;8700;48.222;16.342;2024-01-10T19:20:52;0.30;99.90
17170;DHT22;8700;48.222;16.342;2024-01-10T19:24:14;0.30;99.90
17170;DHT22;8700;48.222;16.342;2024-01-10T19:27:35;0.30;99.90
17170;DHT22;8700;48.222;16.342;2024-01-10T19:30:57;0.20;99.90
17170;DHT22;8700;48.222;16.342;2024-01-10T19:34:19;0.10;99.90
17170;DHT22;8700;48.222;16.342;2024-01-10T19:37:42;0.10;99.90
17170;DHT22;8700;48.222;16.342;2024-01-10T19:41:04;0.10;99.90
17170;DHT22;8700;48.222;16.342;2024-01-10T19:44:25;0.10;99.90
17170;DHT22;8700;48.222;16.342;2024-01-10T19:47:46;0.00;99.90
17170;DHT22;8700;48.222;16.342;2024-01-10T19:51:09;0.00;99.90
17170;DHT22;8700;48.222;16.342;2024-01-10T19:54:30;0.00;99.90
17170;DHT22;8700;48.222;16.342;2024-01-10T19:57:51;0.00;99.90
17170;DHT22;8700;48.222;16.342;2024-01-10T20:01:12;-0.10;99.90
17170;DHT22;8700;48.222;16.342;2024-01-10T20:04:34;-0.10;99.90
17170;DHT22;8700;48.222;16.342;2024-01-10T20:07:56;-0.10;99.90
17170;DHT22;8700;48.222;16.342;2024-01-10T20:11:17;-0.20;99.90
17170;DHT22;8700;48.222;16.342;2024-01-10T20:14:39;-0.20;99.90
17170;DHT22;8700;48.222;16.342;2024-01-10T20:18:00;-0.30;99.90
17170;DHT22;8700;48.222;16.342;2024-01-10T20:21:21;-0.30;99.90
17170;DHT22;8700;48.222;16.342;2024-01-10T20:24:44;-0.20;99.90
17170;DHT22;8700;48.222;16.342;2024-01-10T20:28:05;-0.30;99.90
17170;DHT22;8700;48.222;16.342;2024-01-10T20:31:28;-0.30;99.90
17170;DHT22;8700;48.222;16.342;2024-01-10T20:34:49;-0.40;99.90
17170;DHT22;8700;48.222;16.342;2024-01-10T20:38:10;-0.30;99.90
17170;DHT22;8700;48.222;16.342;2024-01-10T20:41:33;-0.40;99.90
17170;DHT22;8700;48.222;16.342;2024-01-10T20:44:54;-0.40;99.90
17170;DHT22;8700;48.222;16.342;2024-01-10T20:48:15;-0.40;99.90
17170;DHT22;8700;48.222;16.342;2024-01-10T20:51:36;-0.40;99.90
17170;DHT22;8700;48.222;16.342;2024-01-10T20:54:58;-0.40;99.90
17170;DHT22;8700;48.222;16.342;2024-01-10T20:58:21;-0.40;99.90
17170;DHT22;8700;48.222;16.342;2024-01-10T21:01:42;-0.50;99.90
17170;DHT22;8700;48.222;16.342;2024-01-10T21:05:04;-0.40;99.90
17170;DHT22;8700;48.222;16.342;2024-01-10T21:08:26;-0.40;99.90
17170;DHT22;8700;48.222;16.342;2024-01-10T21:11:47;-0.40;99.90
17170;DHT22;8700;48.222;16.342;2024-01-10T21:15:10;-0.40;99.90
17170;DHT22;8700;48.222;16.342;2024-01-10T21:18:31;-0.40;99.90
17170;DHT22;8700;48.222;16.342;2024-01-10T21:21:52;-0.40;99.90
17170;DHT22;8700;48.222;16.342;2024-01-10T21:25:13;-0.40;99.90